KHOU

William P Hobby Airport

Houston, Texas, USA
KHOU 210945Z 2110/2206 11005KT P6SM VCSH BKN015 BKN035 FM211400 16006KT P6SM VCSH SCT035 BKN050
Issued Valid From Valid To
Jun-21 @ 09:45 UTC
(15 minutes ago)
Jun-21 @ 10:00 UTC
(in a few seconds)
Jun-22 @ 06:00 UTC
(in 20 hours)
Jun-21 @ 10:00 to Jun-21 @ 14:00
KHOU 210945Z 2110/2206 11005KT P6SM VCSH BKN015 BKN035
Wind Visibility Clouds
110° at 5 knots Greater than 6 miles
  • Broken at 1,500' AGL
  • Broken at 3,500' AGL
From Jun-21 @ 14:00 to Jun-22 @ 06:00
FM211400 16006KT P6SM VCSH SCT035 BKN050
Wind Visibility Clouds
160° at 6 knots Greater than 6 miles
  • Scattered at 3,500' AGL
  • Broken at 5,000' AGL
KHOU 210945Z 2110/2206 11005KT P6SM VCSH BKN015 BKN035 FM211400 16006KT P6SM VCSH SCT035 BKN050
Issued Jun-21 @ 09:45 UTC
(15 minutes ago)
Valid From Jun-21 @ 10:00 UTC
(in a few seconds)
Valid To Jun-22 @ 06:00 UTC
(in 20 hours)
Jun-21 @ 10:00 - Jun-21 @ 14:00
Wind Visibility
110° at 5 knots Greater than 6 miles
Clouds
  • Broken at 1,500' AGL
  • Broken at 3,500' AGL
From Jun-21 @ 14:00 - Jun-22 @ 06:00
Wind Visibility
160° at 6 knots Greater than 6 miles
Clouds
  • Scattered at 3,500' AGL
  • Broken at 5,000' AGL